Flight Track Log - Related Links

Times and Time Zones

All times are in EDT time to prevent confusion due to time zone crossing. See the LXJ437 flight status page for this flight to view local times or setup timezone preferences in your user account.

Time Position Orientation Groundspeed Altitude Reporting Facility
EDT Latitude Longitude Course Direction KTS MPH feet Rate Location/Type
Fri 11:18:14 AM 40.0822 -74.1761 211° Southwest 285 328 4,900  Level Washington Center
Fri 11:19:12 AM 40.0164 -74.2425 218° Southwest 290 334 6,000 1,322 Climbing Washington Center
Fri 11:20:12 AM 39.9461 -74.3086 216° Southwest 305 351 7,500 992 Climbing Washington Center
Fri 11:21:00 AM 39.6959 -74.5098 211° Southwest  Level Estimated
Fri 11:21:13 AM 39.8739 -74.3775 216° Southwest 319 367 8,000  Level Washington Center
Fri 11:22:00 AM 39.5976 -74.5862 211° Southwest  Level Estimated
Fri 11:22:14 AM 39.8039 -74.4464 217° Southwest 324 373 9,600  Level Washington Center
Fri 11:23:00 AM 39.4992 -74.6624 211° Southwest  Level Estimated
Fri 11:23:14 AM 39.7275 -74.5178 216° Southwest 324 373 13,600  Level Washington Center
Fri 11:24:12 AM 39.6489 -74.5917 216° Southwest 347 399 17,900 4,220 Climbing Washington Center
Fri 11:25:12 AM 39.5619 -74.6628 212° Southwest 359 413 21,900 3,521 Climbing Washington Center
Fri 11:26:13 AM 39.4728 -74.7286 210° Southwest 370 426 25,000 2,902 Climbing Washington Center
Fri 11:27:14 AM 39.3817 -74.7942 209° Southwest 380 437 27,800 2,622 Climbing Washington Center
Fri 11:28:12 AM 39.2883 -74.8622 209° Southwest 380 437 30,200 1,966 Climbing Washington Center
Fri 11:29:13 AM 39.1950 -74.9300 209° Southwest 386 444 31,700 1,488 Climbing Washington Center
Fri 11:30:13 AM 39.0972 -75.0031 210° Southwest 392 451 33,200 1,587 Climbing Washington Center
Fri 11:31:14 AM 38.9997 -75.0733 209° Southwest 406 467 34,900 1,613 Climbing Washington Center
Fri 11:32:12 AM 38.9019 -75.1436 209° Southwest 406 467 36,400 1,261 Climbing Washington Center
Fri 11:33:13 AM 38.8064 -75.2161 211° Southwest 406 467 37,400 984 Climbing Washington Center
Fri 11:34:14 AM 38.7064 -75.2831 208° Southwest 401 461 38,400 793 Climbing Washington Center
Fri 11:35:14 AM 38.6086 -75.3578 211° Southwest 401 461 39,000 559 Climbing Washington Center
Fri 11:36:12 AM 38.5086 -75.4325 210° Southwest 408 470 39,500 555 Climbing Washington Center
Fri 11:37:13 AM 38.4025 -75.4964 205° Southwest 413 475 40,100 645 Climbing Washington Center
Fri 11:38:13 AM 38.3233 -75.5625 213° Southwest 419 482 40,800 694 Climbing Washington Center
Fri 11:39:14 AM 38.2044 -75.6394 207° Southwest 424 488 41,500 712 Climbing Washington Center
Fri 11:40:11 AM 38.1022 -75.7106 209° Southwest 424 488 42,200 712 Climbing Washington Center
Fri 11:41:12 AM 37.9936 -75.7947 211° Southwest 424 488 42,900 393 Climbing Washington Center
Fri 11:42:13 AM 37.8872 -75.8628 207° Southwest 424 488 43,000 50 Climbing Washington Center
Fri 11:43:13 AM 37.8014 -75.9228 209° Southwest 434 499 43,000  Level Washington Center
Fri 11:44:14 AM 37.6739 -76.0169 210° Southwest 445 512 43,000  Level Washington Center
Fri 11:45:12 AM 37.5611 -76.0947 209° Southwest 451 519 43,000  Level Washington Center
Fri 11:46:12 AM 37.4503 -76.1647 207° Southwest 451 519 43,000  Level Washington Center
Fri 11:47:14 AM 37.3392 -76.2397 208° Southwest 451 519 43,000  Level Washington Center
Fri 11:48:12 AM 37.2303 -76.3169 209° Southwest 456 525 43,000  Level Washington Center
Fri 11:49:13 AM 37.1192 -76.3942 209° Southwest 456 525 43,000  Level Washington Center
Fri 11:50:13 AM 37.0083 -76.4683 208° Southwest 456 525 43,000  Level Washington Center
Fri 11:51:14 AM 36.8992 -76.5425 209° Southwest 456 525 43,000  Level Washington Center
Fri 11:52:14 AM 36.7900 -76.6164 208° Southwest 456 525 43,000  Level Washington Center
Fri 11:53:12 AM 36.6936 -76.6875 211° Southwest 456 525 43,000  Level Washington Center
Fri 11:54:12 AM 36.5822 -76.7611 208° Southwest 451 519 43,000  Level Washington Center
Fri 11:55:13 AM 36.4647 -76.8367 207° Southwest 451 519 43,000  Level Washington Center
Fri 11:56:13 AM 36.3681 -76.9022 209° Southwest 446 513 43,000  Level Washington Center
Fri 11:57:13 AM 36.2586 -76.9753 208° Southwest 446 513 43,000  Level Washington Center
Fri 11:58:14 AM 36.1514 -77.0453 208° Southwest 441 507 43,000  Level Washington Center
Fri 11:59:12 AM 36.0442 -77.1153 208° Southwest 441 507 43,000  Level Washington Center
Fri 12:00:13 PM 35.9306 -77.1928 209° Southwest 436 502 43,000  Level Washington Center
Fri 12:01:14 PM 35.8231 -77.2622 208° Southwest 441 507 43,000  Level Washington Center
Fri 12:02:12 PM 35.7114 -77.3367 208° Southwest 441 507 43,000  Level Washington Center
Fri 12:03:12 PM 35.5997 -77.4083 208° Southwest 441 507 43,000  Level Washington Center
Fri 12:04:13 PM 35.4881 -77.4822 208° Southwest 446 513 43,000  Level Washington Center
Fri 12:05:12 PM 35.3764 -77.5561 208° Southwest 457 526 43,000  Level Washington Center
Fri 12:06:13 PM 35.2786 -77.6503 218° Southwest 457 526 43,000  Level Washington Center
Fri 12:07:13 PM 35.1831 -77.7494 220° Southwest 457 526 43,000  Level Washington Center
Fri 12:08:14 PM 35.0875 -77.8486 220° Southwest 457 526 43,000  Level Washington Center
Fri 12:09:12 PM 34.9936 -77.9447 220° Southwest 457 526 43,000  Level Washington Center
Fri 12:10:13 PM 34.8978 -78.0458 221° Southwest 457 526 43,000  Level Washington Center
Fri 12:11:13 PM 34.8019 -78.1442 220° Southwest 457 526 43,000  Level Washington Center
Fri 12:12:14 PM 34.7058 -78.2422 220° Southwest 457 526 43,000  Level Washington Center
Fri 12:13:14 PM 34.6119 -78.3375 220° Southwest 457 526 43,000  Level Washington Center
Fri 12:14:23 PM 34.4967 -78.4511 219° Southwest 463 533 43,000  Level Jacksonville Center
Fri 12:15:23 PM 34.4022 -78.5492 221° Southwest 453 521 43,000  Level Jacksonville Center
Fri 12:16:23 PM 34.3094 -78.6467 221° Southwest 453 521 43,000  Level Jacksonville Center
Fri 12:17:22 PM 34.2144 -78.7392 219° Southwest 448 516 43,000  Level Jacksonville Center
Fri 12:18:22 PM 34.1378 -78.8133 219° Southwest 448 516 43,000  Level Jacksonville Center
Fri 12:19:23 PM 34.0386 -78.9156 221° Southwest 443 510 43,000  Level Jacksonville Center
Fri 12:20:23 PM 33.9542 -79.0144 224° Southwest 443 510 43,000 150 Level Jacksonville Center
Fri 12:21:23 PM 33.8633 -79.1111 221° Southwest 438 504 43,300 600 Climbing Jacksonville Center
Fri 12:22:23 PM 33.7764 -79.2047 222° Southwest 433 498 44,200 800 Climbing Jacksonville Center
Fri 12:23:23 PM 33.6892 -79.2983 222° Southwest 428 493 44,900 403 Climbing Jacksonville Center
Fri 12:24:22 PM 33.6022 -79.3942 223° Southwest 428 493 45,000 50 Climbing Jacksonville Center
Fri 12:25:23 PM 33.5089 -79.4900 221° Southwest 434 499 45,000  Level Jacksonville Center
Fri 12:26:22 PM 33.4156 -79.5906 222° Southwest 440 506 45,000  Level Jacksonville Center
Fri 12:27:22 PM 33.3219 -79.6883 221° Southwest 451 519 45,000  Level Jacksonville Center
Fri 12:28:23 PM 33.2244 -79.7914 221° Southwest 463 533 45,000  Level Jacksonville Center
Fri 12:29:23 PM 33.1286 -79.8914 221° Southwest 463 533 45,000  Level Jacksonville Center
Fri 12:30:23 PM 33.0308 -79.9886 220° Southwest 457 526 45,000  Level Jacksonville Center
Fri 12:31:23 PM 32.9308 -80.0908 221° Southwest 462 532 45,000  Level Jacksonville Center
Fri 12:32:22 PM 32.8269 -80.2056 223° Southwest 468 539 45,000  Level Jacksonville Center
Fri 12:33:23 PM 32.7331 -80.3069 222° Southwest 468 539 45,000  Level Jacksonville Center
Fri 12:34:23 PM 32.6389 -80.4058 221° Southwest 462 532 45,000  Level Jacksonville Center
Fri 12:35:22 PM 32.5469 -80.5044 222° Southwest 443 510 45,000  Level Jacksonville Center
Fri 12:36:22 PM 32.4506 -80.6031 221° Southwest 457 526 45,000  Level Jacksonville Center
Fri 12:37:22 PM 32.3542 -80.7014 221° Southwest 452 520 45,000  Level Jacksonville Center
Fri 12:38:23 PM 32.2642 -80.7994 223° Southwest 450 518 45,000  Level Jacksonville Center
Fri 12:39:22 PM 32.1694 -80.8922 220° Southwest 450 518 45,000  Level Jacksonville Center
Fri 12:40:22 PM 32.0789 -80.9775 219° Southwest 462 532 45,000  Level Jacksonville Center
Fri 12:41:23 PM 31.9700 -81.0925 222° Southwest 481 554 45,000  Level Jacksonville Center
Fri 12:42:23 PM 31.8731 -81.1850 219° Southwest 463 533 45,000  Level Jacksonville Center
Fri 12:43:23 PM 31.7889 -81.2744 222° Southwest 457 526 45,000  Level Jacksonville Center
Fri 12:44:23 PM 31.6836 -81.3839 222° Southwest 462 532 45,000  Level Jacksonville Center
Fri 12:45:23 PM 31.5969 -81.4731 221° Southwest 456 525 45,000  Level Jacksonville Center
Fri 12:46:23 PM 31.4894 -81.5794 220° Southwest 461 531 45,000 -150 Level Jacksonville Center
Fri 12:47:23 PM 31.3944 -81.6756 221° Southwest 461 531 44,700 -655 Descending Jacksonville Center
Fri 12:48:22 PM 31.2972 -81.7767 222° Southwest 461 531 43,700 -1,050 Descending Jacksonville Center
Fri 12:49:23 PM 31.2000 -81.8725 220° Southwest 461 531 42,600 -1,041 Descending Jacksonville Center
Fri 12:50:23 PM 31.1025 -81.9681 220° Southwest 461 531 41,600 -1,000 Descending Jacksonville Center
Fri 12:51:23 PM 31.0008 -82.0661 220° Southwest 467 537 40,600 -800 Descending Jacksonville Center
Fri 12:52:23 PM 30.9053 -82.1614 221° Southwest 467 537 40,000 -300 Descending Jacksonville Center
Fri 12:53:23 PM 30.8100 -82.2589 221° Southwest 467 537 40,000 -350 Level Jacksonville Center
Fri 12:54:23 PM 30.7081 -82.3561 219° Southwest 472 543 39,300 -850 Descending Jacksonville Center
Fri 12:55:23 PM 30.6103 -82.4533 221° Southwest 472 543 38,300 -650 Descending Jacksonville Center
Fri 12:56:23 PM 30.4956 -82.5286 209° Southwest 472 543 38,000 -750 Descending Jacksonville Center
Fri 12:57:23 PM 30.3642 -82.5242 178° South 453 521 36,800 -1,250 Descending Jacksonville Center
Fri 12:58:23 PM 30.2325 -82.4669 159° South 458 527 35,500 -900 Descending Jacksonville Center
Fri 12:59:23 PM 30.0986 -82.4172 162° South 478 550 35,000 -750 Descending Jacksonville Center
Fri 01:00:23 PM 29.9836 -82.3697 160° South 492 566 34,000 -2,300 Descending Jacksonville Center
Fri 01:01:23 PM 29.8539 -82.3322 166° South 487 560 30,400 -3,277 Descending Jacksonville Center
Fri 01:02:22 PM 29.7222 -82.2828 162° South 487 560 27,500 -2,521 Descending Jacksonville Center
Fri 01:03:22 PM 29.5886 -82.2550 170° South 493 567 25,400 -2,132 Descending Jacksonville Center
Fri 01:04:23 PM 29.4486 -82.2367 173° South 493 567 23,200 -2,331 Descending Jacksonville Center
Fri 01:05:23 PM 29.3189 -82.2161 172° South 493 567 20,700 -2,450 Descending Jacksonville Center
Fri 01:06:23 PM 29.2000 -82.1981 172° South 462 532 18,300 -2,400 Descending Jacksonville Center
Fri 01:07:23 PM 29.0892 -82.1822 173° South 433 498 15,900 -2,150 Descending Jacksonville Center
Fri 01:08:23 PM 28.9764 -82.1639 172° South 411 473 14,000 -1,550 Descending Jacksonville Center
Fri 01:09:23 PM 28.8594 -82.1481 173° South 400 460 12,800 -471 Descending Jacksonville Center
Fri 01:11:34 PM 28.6167 -82.1167 174° South 389 448 12,500 -408 Descending Tampa TRACON
Fri 01:12:34 PM 28.5167 -82.1000 172° South 374 430 11,500 -750 Descending Tampa TRACON
Fri 01:13:34 PM 28.4167 -82.0833 172° South 368 423 11,000 -250 Descending Tampa TRACON
Fri 01:14:34 PM 28.3167 -82.1000 188° South 364 419 11,000  Level Tampa TRACON
Fri 01:15:34 PM 28.2167 -82.1167 188° South 360 414 11,000  Level Tampa TRACON
Fri 01:16:34 PM 28.1167 -82.1500 196° South 353 406 11,000 -400 Level Tampa TRACON
Fri 01:17:34 PM 28.0333 -82.1667 190° South 311 358 10,200 -1,211 Descending Tampa TRACON
Fri 01:18:28 PM 27.9667 -82.1833 192° South 294 338 8,700 -1,524 Descending Tampa TRACON
Fri 01:19:40 PM 27.8667 -82.2000 188° South 277 319 7,000 -1,227 Descending Tampa TRACON
Fri 01:20:40 PM 27.8000 -82.2167 192° South 277 319 6,000 -500 Descending Tampa TRACON
Fri 01:21:40 PM 27.7333 -82.2667 214° Southwest 270 311 6,000  Level Tampa TRACON
Fri 01:22:40 PM 27.6667 -82.3000 204° Southwest 269 310 6,000 -595 Level Tampa TRACON
Fri 01:23:41 PM 27.6000 -82.3333 204° Southwest 264 304 4,800 -1,339 Descending Tampa TRACON
Fri 01:24:41 PM 27.5333 -82.3667 204° Southwest 271 312 3,300 -1,350 Descending Tampa TRACON
Fri 01:25:41 PM 27.4667 -82.4000 204° Southwest 264 304 2,100 -650 Descending Tampa TRACON
Fri 01:26:41 PM 27.4000 -82.4500 214° Southwest 236 272 2,000 -300 Descending Tampa TRACON
Fri 01:27:41 PM 27.3500 -82.4833 211° Southwest 194 223 1,500 -526 Descending Tampa TRACON
Fri 01:28:35 PM 27.3667 -82.5167 299° West 129 148 1,000 -684 Descending Tampa TRACON
Fri 01:29:35 PM 27.3833 -82.5333 318° Northwest 122 140 200 -800 Descending Tampa TRACON
Fri 01:31:00 PM 27.3833 -82.5500 160° South  Level FlightAware Approximate
Fri 01:38:00 PM 27.3954 -82.5544 160° South  Level Estimated

Login

Don't have an account? Register now (free) for customized features, flight alerts, and more!